sensor_id;sensor_type;location;lat;lon;timestamp;P1;durP1;ratioP1;P2;durP2;ratioP2
45382;SDS011;42455;51.660;5.824;2024-02-04T00:02:01;14.0;;;13.0;;
45382;SDS011;42455;51.660;5.824;2024-02-04T00:07:07;16.0;;;14.0;;
45382;SDS011;42455;51.660;5.824;2024-02-04T00:12:13;16.5;;;15.0;;
45382;SDS011;42455;51.660;5.824;2024-02-04T00:17:20;17.0;;;16.0;;
45382;SDS011;42455;51.660;5.824;2024-02-04T00:22:26;18.0;;;16.5;;
45382;SDS011;42455;51.660;5.824;2024-02-04T00:27:32;19.0;;;17.0;;
45382;SDS011;42455;51.660;5.824;2024-02-04T00:32:38;18.0;;;16.0;;
45382;SDS011;42455;51.660;5.824;2024-02-04T00:42:51;16.0;;;14.0;;
45382;SDS011;42455;51.660;5.824;2024-02-04T00:47:57;16.0;;;14.0;;
45382;SDS011;42455;51.660;5.824;2024-02-04T00:53:02;14.0;;;13.0;;
45382;SDS011;42455;51.660;5.824;2024-02-04T00:58:08;11.0;;;10.0;;
45382;SDS011;42455;51.660;5.824;2024-02-04T01:03:14;12.0;;;11.0;;
45382;SDS011;42455;51.660;5.824;2024-02-04T01:08:21;13.0;;;12.0;;
45382;SDS011;42455;51.660;5.824;2024-02-04T01:13:27;16.0;;;14.0;;
45382;SDS011;42455;51.660;5.824;2024-02-04T01:18:33;17.0;;;15.0;;
45382;SDS011;42455;51.660;5.824;2024-02-04T01:23:39;17.0;;;15.0;;
45382;SDS011;42455;51.660;5.824;2024-02-04T01:28:45;18.0;;;16.0;;
45382;SDS011;42455;51.660;5.824;2024-02-04T01:33:52;20.0;;;16.0;;
45382;SDS011;42455;51.660;5.824;2024-02-04T01:38:58;19.0;;;16.0;;
45382;SDS011;42455;51.660;5.824;2024-02-04T01:44:04;20.5;;;16.0;;
45382;SDS011;42455;51.660;5.824;2024-02-04T01:49:11;19.0;;;17.0;;
45382;SDS011;42455;51.660;5.824;2024-02-04T01:54:17;21.0;;;16.0;;
45382;SDS011;42455;51.660;5.824;2024-02-04T01:59:23;19.5;;;17.0;;
45382;SDS011;42455;51.660;5.824;2024-02-04T02:04:29;22.0;;;17.0;;
45382;SDS011;42455;51.660;5.824;2024-02-04T02:09:35;24.0;;;18.0;;
45382;SDS011;42455;51.660;5.824;2024-02-04T02:14:59;25.0;;;17.0;;
45382;SDS011;42455;51.660;5.824;2024-02-04T02:21:02;20.0;;;17.0;;
45382;SDS011;42455;51.660;5.824;2024-02-04T02:24:59;22.0;;;17.0;;
45382;SDS011;42455;51.660;5.824;2024-02-04T02:30:00;22.0;;;16.0;;
45382;SDS011;42455;51.660;5.824;2024-02-04T02:35:06;21.0;;;16.0;;
45382;SDS011;42455;51.660;5.824;2024-02-04T02:40:54;24.5;;;15.0;;
45382;SDS011;42455;51.660;5.824;2024-02-04T02:45:19;21.0;;;15.0;;
45382;SDS011;42455;51.660;5.824;2024-02-04T02:50:25;21.0;;;14.0;;
45382;SDS011;42455;51.660;5.824;2024-02-04T02:55:31;20.0;;;14.5;;
45382;SDS011;42455;51.660;5.824;2024-02-04T03:00:37;20.5;;;14.0;;
45382;SDS011;42455;51.660;5.824;2024-02-04T03:05:44;19.0;;;14.0;;
45382;SDS011;42455;51.660;5.824;2024-02-04T03:10:50;18.0;;;14.0;;
45382;SDS011;42455;51.660;5.824;2024-02-04T03:15:56;18.0;;;14.0;;
45382;SDS011;42455;51.660;5.824;2024-02-04T03:21:02;21.0;;;14.0;;
45382;SDS011;42455;51.660;5.824;2024-02-04T03:26:09;18.0;;;14.0;;
45382;SDS011;42455;51.660;5.824;2024-02-04T03:31:19;19.0;;;13.0;;
45382;SDS011;42455;51.660;5.824;2024-02-04T03:36:24;16.0;;;12.0;;
45382;SDS011;42455;51.660;5.824;2024-02-04T03:41:27;18.0;;;12.0;;
45382;SDS011;42455;51.660;5.824;2024-02-04T03:46:33;17.0;;;11.0;;
45382;SDS011;42455;51.660;5.824;2024-02-04T03:51:39;17.0;;;11.0;;
45382;SDS011;42455;51.660;5.824;2024-02-04T03:56:46;14.5;;;10.0;;
45382;SDS011;42455;51.660;5.824;2024-02-04T04:01:52;14.0;;;11.0;;
45382;SDS011;42455;51.660;5.824;2024-02-04T04:06:58;14.0;;;10.0;;
45382;SDS011;42455;51.660;5.824;2024-02-04T04:12:05;17.0;;;10.0;;
45382;SDS011;42455;51.660;5.824;2024-02-04T04:17:10;14.0;;;10.0;;
45382;SDS011;42455;51.660;5.824;2024-02-04T04:22:17;17.0;;;10.0;;
45382;SDS011;42455;51.660;5.824;2024-02-04T04:27:23;14.5;;;9.0;;
45382;SDS011;42455;51.660;5.824;2024-02-04T04:32:29;16.0;;;9.0;;
45382;SDS011;42455;51.660;5.824;2024-02-04T04:37:35;13.0;;;9.0;;
45382;SDS011;42455;51.660;5.824;2024-02-04T04:42:42;14.0;;;9.0;;
45382;SDS011;42455;51.660;5.824;2024-02-04T04:47:48;13.0;;;9.0;;
45382;SDS011;42455;51.660;5.824;2024-02-04T04:52:54;15.0;;;10.0;;
45382;SDS011;42455;51.660;5.824;2024-02-04T04:58:00;14.0;;;11.0;;
45382;SDS011;42455;51.660;5.824;2024-02-04T05:03:06;16.0;;;11.0;;
45382;SDS011;42455;51.660;5.824;2024-02-04T05:08:14;18.0;;;13.0;;
45382;SDS011;42455;51.660;5.824;2024-02-04T05:13:19;21.0;;;14.0;;
45382;SDS011;42455;51.660;5.824;2024-02-04T05:18:25;18.5;;;14.0;;
45382;SDS011;42455;51.660;5.824;2024-02-04T05:23:31;20.5;;;15.0;;
45382;SDS011;42455;51.660;5.824;2024-02-04T05:28:37;19.0;;;15.0;;
45382;SDS011;42455;51.660;5.824;2024-02-04T05:33:44;19.0;;;15.0;;
45382;SDS011;42455;51.660;5.824;2024-02-04T05:38:50;18.0;;;14.0;;
45382;SDS011;42455;51.660;5.824;2024-02-04T05:43:56;16.0;;;13.0;;
45382;SDS011;42455;51.660;5.824;2024-02-04T05:49:02;15.0;;;12.0;;
45382;SDS011;42455;51.660;5.824;2024-02-04T05:54:08;15.0;;;11.0;;
45382;SDS011;42455;51.660;5.824;2024-02-04T05:59:15;14.0;;;11.0;;
45382;SDS011;42455;51.660;5.824;2024-02-04T06:04:21;14.0;;;10.0;;
45382;SDS011;42455;51.660;5.824;2024-02-04T06:09:27;11.0;;;10.0;;
45382;SDS011;42455;51.660;5.824;2024-02-04T06:14:33;11.0;;;9.0;;
45382;SDS011;42455;51.660;5.824;2024-02-04T06:19:39;10.0;;;8.5;;
45382;SDS011;42455;51.660;5.824;2024-02-04T06:24:45;9.0;;;8.0;;
45382;SDS011;42455;51.660;5.824;2024-02-04T06:29:51;10.0;;;8.0;;
45382;SDS011;42455;51.660;5.824;2024-02-04T06:34:57;12.0;;;8.0;;
45382;SDS011;42455;51.660;5.824;2024-02-04T06:40:04;11.0;;;8.0;;
45382;SDS011;42455;51.660;5.824;2024-02-04T06:45:10;10.0;;;9.0;;
45382;SDS011;42455;51.660;5.824;2024-02-04T06:50:16;10.0;;;8.0;;
45382;SDS011;42455;51.660;5.824;2024-02-04T06:55:22;13.0;;;9.0;;
45382;SDS011;42455;51.660;5.824;2024-02-04T07:00:28;9.5;;;8.0;;
45382;SDS011;42455;51.660;5.824;2024-02-04T07:05:34;10.0;;;9.0;;
45382;SDS011;42455;51.660;5.824;2024-02-04T07:10:41;9.0;;;8.0;;
45382;SDS011;42455;51.660;5.824;2024-02-04T07:15:47;9.0;;;8.0;;
45382;SDS011;42455;51.660;5.824;2024-02-04T07:20:53;8.0;;;7.0;;
45382;SDS011;42455;51.660;5.824;2024-02-04T07:25:59;8.0;;;7.0;;
45382;SDS011;42455;51.660;5.824;2024-02-04T07:31:06;8.0;;;7.0;;
45382;SDS011;42455;51.660;5.824;2024-02-04T07:36:12;8.0;;;7.0;;
45382;SDS011;42455;51.660;5.824;2024-02-04T07:41:18;8.0;;;7.0;;
45382;SDS011;42455;51.660;5.824;2024-02-04T07:46:24;8.0;;;7.0;;
45382;SDS011;42455;51.660;5.824;2024-02-04T07:51:30;9.0;;;8.0;;
45382;SDS011;42455;51.660;5.824;2024-02-04T07:56:37;9.0;;;8.0;;
45382;SDS011;42455;51.660;5.824;2024-02-04T08:01:43;9.0;;;8.0;;
45382;SDS011;42455;51.660;5.824;2024-02-04T08:06:49;11.0;;;9.0;;
45382;SDS011;42455;51.660;5.824;2024-02-04T08:11:55;11.0;;;9.0;;
45382;SDS011;42455;51.660;5.824;2024-02-04T08:17:01;9.0;;;8.0;;
45382;SDS011;42455;51.660;5.824;2024-02-04T08:22:08;9.0;;;9.0;;
45382;SDS011;42455;51.660;5.824;2024-02-04T08:27:14;9.0;;;8.0;;
45382;SDS011;42455;51.660;5.824;2024-02-04T08:32:20;9.0;;;8.0;;
45382;SDS011;42455;51.660;5.824;2024-02-04T08:37:26;9.0;;;8.0;;
45382;SDS011;42455;51.660;5.824;2024-02-04T08:42:33;9.0;;;8.0;;
45382;SDS011;42455;51.660;5.824;2024-02-04T08:47:39;9.0;;;8.0;;
45382;SDS011;42455;51.660;5.824;2024-02-04T08:52:45;9.0;;;8.0;;
45382;SDS011;42455;51.660;5.824;2024-02-04T08:57:51;9.0;;;8.0;;
45382;SDS011;42455;51.660;5.824;2024-02-04T09:02:57;9.0;;;8.0;;
45382;SDS011;42455;51.660;5.824;2024-02-04T09:08:03;9.0;;;8.0;;
45382;SDS011;42455;51.660;5.824;2024-02-04T09:13:10;8.0;;;7.0;;
45382;SDS011;42455;51.660;5.824;2024-02-04T09:18:16;9.0;;;8.0;;
45382;SDS011;42455;51.660;5.824;2024-02-04T09:23:22;8.0;;;7.5;;
45382;SDS011;42455;51.660;5.824;2024-02-04T09:28:28;7.5;;;7.0;;
45382;SDS011;42455;51.660;5.824;2024-02-04T09:33:34;7.0;;;7.0;;
45382;SDS011;42455;51.660;5.824;2024-02-04T09:38:41;7.0;;;6.0;;
45382;SDS011;42455;51.660;5.824;2024-02-04T09:43:47;7.0;;;6.0;;
45382;SDS011;42455;51.660;5.824;2024-02-04T09:48:53;7.0;;;6.0;;
45382;SDS011;42455;51.660;5.824;2024-02-04T09:54:02;7.0;;;5.0;;
45382;SDS011;42455;51.660;5.824;2024-02-04T09:59:06;5.0;;;5.0;;
45382;SDS011;42455;51.660;5.824;2024-02-04T10:04:12;5.0;;;4.0;;
45382;SDS011;42455;51.660;5.824;2024-02-04T10:09:18;5.0;;;4.0;;
45382;SDS011;42455;51.660;5.824;2024-02-04T10:14:24;5.0;;;4.5;;
45382;SDS011;42455;51.660;5.824;2024-02-04T10:19:30;3.0;;;3.0;;
45382;SDS011;42455;51.660;5.824;2024-02-04T10:24:37;5.0;;;3.0;;
45382;SDS011;42455;51.660;5.824;2024-02-04T10:29:43;3.0;;;2.0;;
45382;SDS011;42455;51.660;5.824;2024-02-04T10:34:49;2.0;;;2.0;;
45382;SDS011;42455;51.660;5.824;2024-02-04T10:39:55;2.0;;;2.0;;
45382;SDS011;42455;51.660;5.824;2024-02-04T10:45:01;2.0;;;1.0;;
45382;SDS011;42455;51.660;5.824;2024-02-04T10:50:08;2.0;;;1.0;;
45382;SDS011;42455;51.660;5.824;2024-02-04T10:55:17;2.0;;;2.0;;
45382;SDS011;42455;51.660;5.824;2024-02-04T11:00:20;4.0;;;3.0;;
45382;SDS011;42455;51.660;5.824;2024-02-04T11:05:26;5.0;;;4.0;;
45382;SDS011;42455;51.660;5.824;2024-02-04T11:10:34;6.0;;;5.0;;
45382;SDS011;42455;51.660;5.824;2024-02-04T11:15:43;6.0;;;6.0;;
45382;SDS011;42455;51.660;5.824;2024-02-04T11:25:56;6.0;;;6.0;;
45382;SDS011;42455;51.660;5.824;2024-02-04T11:26:44;7.0;;;7.0;;
45382;SDS011;42455;51.660;5.824;2024-02-04T11:30:57;7.0;;;6.0;;
45382;SDS011;42455;51.660;5.824;2024-02-04T11:36:04;7.0;;;6.0;;
45382;SDS011;42455;51.660;5.824;2024-02-04T11:41:10;7.0;;;6.0;;
45382;SDS011;42455;51.660;5.824;2024-02-04T11:46:16;7.0;;;6.0;;
45382;SDS011;42455;51.660;5.824;2024-02-04T11:51:23;7.0;;;6.0;;
45382;SDS011;42455;51.660;5.824;2024-02-04T11:56:28;6.0;;;6.0;;
45382;SDS011;42455;51.660;5.824;2024-02-04T12:01:34;7.0;;;6.0;;
45382;SDS011;42455;51.660;5.824;2024-02-04T12:06:40;7.0;;;6.0;;
45382;SDS011;42455;51.660;5.824;2024-02-04T12:11:46;8.0;;;7.0;;
45382;SDS011;42455;51.660;5.824;2024-02-04T12:16:52;8.0;;;7.0;;
45382;SDS011;42455;51.660;5.824;2024-02-04T12:21:59;7.0;;;7.0;;
45382;SDS011;42455;51.660;5.824;2024-02-04T12:27:05;7.0;;;7.0;;
45382;SDS011;42455;51.660;5.824;2024-02-04T12:32:13;8.0;;;7.0;;
45382;SDS011;42455;51.660;5.824;2024-02-04T12:37:16;7.0;;;7.0;;
45382;SDS011;42455;51.660;5.824;2024-02-04T12:42:22;8.0;;;6.0;;
45382;SDS011;42455;51.660;5.824;2024-02-04T12:47:29;7.0;;;6.0;;
45382;SDS011;42455;51.660;5.824;2024-02-04T12:52:35;6.0;;;5.0;;
45382;SDS011;42455;51.660;5.824;2024-02-04T12:57:41;7.0;;;6.0;;
45382;SDS011;42455;51.660;5.824;2024-02-04T13:02:49;6.0;;;5.0;;
45382;SDS011;42455;51.660;5.824;2024-02-04T13:07:54;5.0;;;5.0;;
45382;SDS011;42455;51.660;5.824;2024-02-04T13:13:00;5.0;;;4.0;;
45382;SDS011;42455;51.660;5.824;2024-02-04T13:18:07;3.0;;;3.0;;
45382;SDS011;42455;51.660;5.824;2024-02-04T13:23:12;3.0;;;3.0;;
45382;SDS011;42455;51.660;5.824;2024-02-04T13:28:18;3.0;;;2.0;;
45382;SDS011;42455;51.660;5.824;2024-02-04T13:33:25;6.0;;;2.0;;
45382;SDS011;42455;51.660;5.824;2024-02-04T13:38:31;3.5;;;2.0;;
45382;SDS011;42455;51.660;5.824;2024-02-04T13:43:37;3.5;;;1.0;;
45382;SDS011;42455;51.660;5.824;2024-02-04T13:48:43;4.0;;;2.0;;
45382;SDS011;42455;51.660;5.824;2024-02-04T13:53:49;3.0;;;2.0;;
45382;SDS011;42455;51.660;5.824;2024-02-04T13:58:56;3.0;;;2.0;;
45382;SDS011;42455;51.660;5.824;2024-02-04T14:04:02;3.0;;;1.0;;
45382;SDS011;42455;51.660;5.824;2024-02-04T14:09:08;4.5;;;2.0;;
45382;SDS011;42455;51.660;5.824;2024-02-04T14:14:14;4.0;;;2.0;;
45382;SDS011;42455;51.660;5.824;2024-02-04T14:19:21;3.0;;;1.0;;
45382;SDS011;42455;51.660;5.824;2024-02-04T14:24:27;3.0;;;1.5;;
45382;SDS011;42455;51.660;5.824;2024-02-04T14:29:33;3.0;;;2.0;;
45382;SDS011;42455;51.660;5.824;2024-02-04T14:34:39;2.0;;;2.0;;
45382;SDS011;42455;51.660;5.824;2024-02-04T14:39:45;2.0;;;1.0;;
45382;SDS011;42455;51.660;5.824;2024-02-04T14:44:52;3.0;;;1.0;;
45382;SDS011;42455;51.660;5.824;2024-02-04T14:49:58;3.0;;;1.0;;
45382;SDS011;42455;51.660;5.824;2024-02-04T14:55:04;3.0;;;1.0;;
45382;SDS011;42455;51.660;5.824;2024-02-04T15:00:10;3.0;;;1.0;;
45382;SDS011;42455;51.660;5.824;2024-02-04T15:05:16;2.0;;;1.0;;
45382;SDS011;42455;51.660;5.824;2024-02-04T15:10:23;2.0;;;1.0;;
45382;SDS011;42455;51.660;5.824;2024-02-04T15:15:29;3.0;;;2.0;;
45382;SDS011;42455;51.660;5.824;2024-02-04T15:20:35;4.0;;;2.0;;
45382;SDS011;42455;51.660;5.824;2024-02-04T15:25:41;4.0;;;2.0;;
45382;SDS011;42455;51.660;5.824;2024-02-04T15:30:47;4.0;;;2.0;;
45382;SDS011;42455;51.660;5.824;2024-02-04T15:35:54;3.0;;;2.0;;
45382;SDS011;42455;51.660;5.824;2024-02-04T15:41:00;4.0;;;3.0;;
45382;SDS011;42455;51.660;5.824;2024-02-04T15:46:07;3.0;;;3.0;;
45382;SDS011;42455;51.660;5.824;2024-02-04T15:51:12;3.0;;;2.0;;
45382;SDS011;42455;51.660;5.824;2024-02-04T15:56:19;5.0;;;3.0;;
45382;SDS011;42455;51.660;5.824;2024-02-04T16:01:25;4.0;;;3.0;;
45382;SDS011;42455;51.660;5.824;2024-02-04T16:06:31;4.0;;;3.0;;
45382;SDS011;42455;51.660;5.824;2024-02-04T16:11:40;4.0;;;3.0;;
45382;SDS011;42455;51.660;5.824;2024-02-04T16:16:43;5.0;;;4.0;;
45382;SDS011;42455;51.660;5.824;2024-02-04T16:21:50;6.0;;;4.0;;
45382;SDS011;42455;51.660;5.824;2024-02-04T16:26:56;7.0;;;5.0;;
45382;SDS011;42455;51.660;5.824;2024-02-04T16:32:02;6.0;;;5.0;;
45382;SDS011;42455;51.660;5.824;2024-02-04T16:37:08;5.0;;;5.0;;
45382;SDS011;42455;51.660;5.824;2024-02-04T16:42:14;7.0;;;5.0;;
45382;SDS011;42455;51.660;5.824;2024-02-04T16:47:21;6.0;;;5.0;;
45382;SDS011;42455;51.660;5.824;2024-02-04T16:52:27;8.0;;;5.0;;
45382;SDS011;42455;51.660;5.824;2024-02-04T16:57:33;7.0;;;4.0;;
45382;SDS011;42455;51.660;5.824;2024-02-04T17:02:39;7.0;;;5.0;;
45382;SDS011;42455;51.660;5.824;2024-02-04T17:07:46;8.0;;;5.0;;
45382;SDS011;42455;51.660;5.824;2024-02-04T17:12:52;6.0;;;4.0;;
45382;SDS011;42455;51.660;5.824;2024-02-04T17:18:09;7.0;;;5.0;;
45382;SDS011;42455;51.660;5.824;2024-02-04T17:23:08;7.0;;;5.0;;
45382;SDS011;42455;51.660;5.824;2024-02-04T17:28:10;8.5;;;6.0;;
45382;SDS011;42455;51.660;5.824;2024-02-04T17:33:17;9.0;;;6.0;;
45382;SDS011;42455;51.660;5.824;2024-02-04T17:38:23;10.0;;;6.0;;
45382;SDS011;42455;51.660;5.824;2024-02-04T17:43:30;11.0;;;6.0;;
45382;SDS011;42455;51.660;5.824;2024-02-04T17:48:35;11.0;;;6.0;;
45382;SDS011;42455;51.660;5.824;2024-02-04T17:53:42;9.5;;;7.0;;
45382;SDS011;42455;51.660;5.824;2024-02-04T17:58:48;9.0;;;7.0;;
45382;SDS011;42455;51.660;5.824;2024-02-04T18:03:53;9.5;;;7.0;;
45382;SDS011;42455;51.660;5.824;2024-02-04T18:08:59;9.5;;;8.0;;
45382;SDS011;42455;51.660;5.824;2024-02-04T18:14:05;12.0;;;9.0;;
45382;SDS011;42455;51.660;5.824;2024-02-04T18:19:12;12.0;;;9.0;;
45382;SDS011;42455;51.660;5.824;2024-02-04T18:24:18;12.0;;;10.0;;
45382;SDS011;42455;51.660;5.824;2024-02-04T18:29:24;14.5;;;11.0;;
45382;SDS011;42455;51.660;5.824;2024-02-04T18:34:30;12.0;;;11.0;;
45382;SDS011;42455;51.660;5.824;2024-02-04T18:39:37;13.0;;;12.0;;
45382;SDS011;42455;51.660;5.824;2024-02-04T18:44:43;14.0;;;13.0;;
45382;SDS011;42455;51.660;5.824;2024-02-04T18:49:49;15.5;;;13.0;;
45382;SDS011;42455;51.660;5.824;2024-02-04T18:54:55;15.0;;;13.0;;
45382;SDS011;42455;51.660;5.824;2024-02-04T19:00:01;15.0;;;13.0;;
45382;SDS011;42455;51.660;5.824;2024-02-04T19:05:08;14.0;;;12.0;;
45382;SDS011;42455;51.660;5.824;2024-02-04T19:10:14;13.0;;;11.0;;
45382;SDS011;42455;51.660;5.824;2024-02-04T19:15:20;12.0;;;11.0;;
45382;SDS011;42455;51.660;5.824;2024-02-04T19:20:26;11.0;;;10.0;;
45382;SDS011;42455;51.660;5.824;2024-02-04T19:25:32;11.0;;;10.0;;
45382;SDS011;42455;51.660;5.824;2024-02-04T19:30:40;11.0;;;10.0;;
45382;SDS011;42455;51.660;5.824;2024-02-04T19:35:45;11.0;;;9.0;;
45382;SDS011;42455;51.660;5.824;2024-02-04T19:40:51;11.0;;;9.0;;
45382;SDS011;42455;51.660;5.824;2024-02-04T19:45:57;11.0;;;9.5;;
45382;SDS011;42455;51.660;5.824;2024-02-04T19:51:04;10.0;;;9.0;;
45382;SDS011;42455;51.660;5.824;2024-02-04T19:56:10;10.0;;;8.0;;
45382;SDS011;42455;51.660;5.824;2024-02-04T20:01:16;9.0;;;8.0;;
45382;SDS011;42455;51.660;5.824;2024-02-04T20:06:22;10.0;;;9.0;;
45382;SDS011;42455;51.660;5.824;2024-02-04T20:11:28;10.0;;;9.0;;
45382;SDS011;42455;51.660;5.824;2024-02-04T20:16:34;11.0;;;9.0;;
45382;SDS011;42455;51.660;5.824;2024-02-04T20:21:41;11.0;;;8.0;;
45382;SDS011;42455;51.660;5.824;2024-02-04T20:26:47;12.0;;;7.0;;
45382;SDS011;42455;51.660;5.824;2024-02-04T20:31:53;9.0;;;7.0;;
45382;SDS011;42455;51.660;5.824;2024-02-04T20:36:59;10.5;;;7.0;;
45382;SDS011;42455;51.660;5.824;2024-02-04T20:42:05;10.5;;;7.0;;
45382;SDS011;42455;51.660;5.824;2024-02-04T20:47:12;10.0;;;7.0;;
45382;SDS011;42455;51.660;5.824;2024-02-04T20:52:18;11.0;;;7.0;;
45382;SDS011;42455;51.660;5.824;2024-02-04T20:57:24;11.0;;;7.0;;
45382;SDS011;42455;51.660;5.824;2024-02-04T21:02:30;12.0;;;7.0;;
45382;SDS011;42455;51.660;5.824;2024-02-04T21:07:37;10.0;;;7.0;;
45382;SDS011;42455;51.660;5.824;2024-02-04T21:12:43;9.0;;;6.0;;
45382;SDS011;42455;51.660;5.824;2024-02-04T21:17:49;12.0;;;7.0;;
45382;SDS011;42455;51.660;5.824;2024-02-04T21:22:55;12.0;;;6.0;;
45382;SDS011;42455;51.660;5.824;2024-02-04T21:28:01;12.0;;;7.0;;
45382;SDS011;42455;51.660;5.824;2024-02-04T21:33:08;10.0;;;6.0;;
45382;SDS011;42455;51.660;5.824;2024-02-04T21:38:14;10.0;;;6.0;;
45382;SDS011;42455;51.660;5.824;2024-02-04T21:43:20;12.0;;;7.0;;
45382;SDS011;42455;51.660;5.824;2024-02-04T21:48:26;11.0;;;6.0;;
45382;SDS011;42455;51.660;5.824;2024-02-04T21:53:32;10.0;;;6.0;;
45382;SDS011;42455;51.660;5.824;2024-02-04T21:58:39;11.0;;;6.0;;
45382;SDS011;42455;51.660;5.824;2024-02-04T22:03:45;11.0;;;6.0;;
45382;SDS011;42455;51.660;5.824;2024-02-04T22:08:51;12.5;;;6.0;;
45382;SDS011;42455;51.660;5.824;2024-02-04T22:13:57;12.0;;;6.0;;
45382;SDS011;42455;51.660;5.824;2024-02-04T22:19:04;10.0;;;6.0;;
45382;SDS011;42455;51.660;5.824;2024-02-04T22:24:10;10.0;;;6.0;;
45382;SDS011;42455;51.660;5.824;2024-02-04T22:29:16;12.0;;;6.0;;
45382;SDS011;42455;51.660;5.824;2024-02-04T22:34:22;13.0;;;5.0;;
45382;SDS011;42455;51.660;5.824;2024-02-04T22:39:29;11.0;;;5.0;;
45382;SDS011;42455;51.660;5.824;2024-02-04T22:44:35;11.0;;;4.5;;
45382;SDS011;42455;51.660;5.824;2024-02-04T22:49:41;11.0;;;5.0;;
45382;SDS011;42455;51.660;5.824;2024-02-04T22:54:47;9.0;;;4.0;;
45382;SDS011;42455;51.660;5.824;2024-02-04T22:59:53;14.0;;;5.0;;
45382;SDS011;42455;51.660;5.824;2024-02-04T23:05:00;10.0;;;4.0;;
45382;SDS011;42455;51.660;5.824;2024-02-04T23:10:06;10.0;;;4.0;;
45382;SDS011;42455;51.660;5.824;2024-02-04T23:15:12;11.0;;;4.0;;
45382;SDS011;42455;51.660;5.824;2024-02-04T23:20:18;12.0;;;4.0;;
45382;SDS011;42455;51.660;5.824;2024-02-04T23:25:24;14.0;;;4.0;;
45382;SDS011;42455;51.660;5.824;2024-02-04T23:30:31;11.0;;;4.0;;
45382;SDS011;42455;51.660;5.824;2024-02-04T23:35:36;13.0;;;4.0;;
45382;SDS011;42455;51.660;5.824;2024-02-04T23:40:42;11.0;;;4.0;;
45382;SDS011;42455;51.660;5.824;2024-02-04T23:45:48;11.0;;;4.0;;
45382;SDS011;42455;51.660;5.824;2024-02-04T23:50:54;11.0;;;3.0;;
45382;SDS011;42455;51.660;5.824;2024-02-04T23:56:01;10.0;;;4.0;;
